Time;durP1;ratioP1;P1;durP2;ratioP2;P2;SDS_P1;SDS_P2;PMS_P1;PMS_P2;Temp;Humidity;BMP_temperature;BMP_pressure;BME280_temperature;BME280_humidity;BME280_pressure;Samples;Min_cycle;Max_cycle;Signal;HPM_P1;HPM_P2
2023/11/04 00:00:52;;;;;;;;;4.00;2.00;;;;;;;;5066047;27;46307;-60
2023/11/04 00:03:17;;;;;;;;;2.33;1.00;;;;;;;;5071395;27;45393;-60
2023/11/04 00:05:42;;;;;;;;;3.33;1.00;;;;;;;;5075949;27;45305;-59
2023/11/04 00:08:07;;;;;;;;;2.00;2.00;;;;;;;;5072366;27;45925;-59
2023/11/04 00:10:33;;;;;;;;;4.67;3.00;;;;;;;;5081655;27;45374;-60
2023/11/04 00:12:58;;;;;;;;;2.00;2.00;;;;;;;;5075438;27;45492;-59
2023/11/04 00:15:23;;;;;;;;;4.00;2.33;;;;;;;;5079732;27;45376;-59
2023/11/04 00:17:48;;;;;;;;;2.00;2.00;;;;;;;;5080342;27;45775;-59
2023/11/04 00:20:13;;;;;;;;;2.00;2.00;;;;;;;;5075485;27;46414;-60
2023/11/04 00:22:38;;;;;;;;;2.67;2.00;;;;;;;;5075156;27;45522;-60
2023/11/04 00:25:04;;;;;;;;;3.33;2.33;;;;;;;;5075407;27;45447;-59
2023/11/04 00:27:29;;;;;;;;;2.00;2.00;;;;;;;;5067757;27;45732;-60
2023/11/04 00:29:54;;;;;;;;;3.00;2.33;;;;;;;;5081615;27;46600;-60
2023/11/04 00:32:19;;;;;;;;;2.00;2.00;;;;;;;;5080357;27;45503;-59
2023/11/04 00:34:45;;;;;;;;;2.67;2.00;;;;;;;;5081255;27;45598;-60
2023/11/04 00:37:10;;;;;;;;;1.00;1.00;;;;;;;;5081471;27;45794;-60
2023/11/04 00:39:36;;;;;;;;;3.00;2.00;;;;;;;;5072010;27;45403;-59
2023/11/04 00:42:01;;;;;;;;;3.33;2.67;;;;;;;;5062833;28;45811;-60
2023/11/04 00:44:27;;;;;;;;;3.67;2.00;;;;;;;;5076866;27;45480;-60
2023/11/04 00:46:53;;;;;;;;;4.33;3.00;;;;;;;;5077737;28;45534;-59
2023/11/04 00:49:18;;;;;;;;;4.00;2.00;;;;;;;;5069368;28;46771;-59
2023/11/04 00:51:43;;;;;;;;;2.00;2.00;;;;;;;;5066253;28;45251;-59
2023/11/04 00:54:08;;;;;;;;;1.00;1.00;;;;;;;;5077638;28;45547;-60
2023/11/04 00:56:33;;;;;;;;;2.00;2.00;;;;;;;;5072426;28;45388;-59
2023/11/04 00:58:59;;;;;;;;;2.33;2.00;;;;;;;;5067556;28;48071;-59
2023/11/04 01:01:24;;;;;;;;;2.00;1.33;;;;;;;;5069629;28;45313;-59
2023/11/04 01:03:49;;;;;;;;;4.00;2.33;;;;;;;;5068861;27;45226;-60
2023/11/04 01:06:14;;;;;;;;;1.67;1.67;;;;;;;;5086053;27;45504;-59
2023/11/04 01:08:39;;;;;;;;;1.67;1.67;;;;;;;;5074836;27;46102;-59
2023/11/04 01:11:05;;;;;;;;;2.67;2.00;;;;;;;;5089724;27;45378;-60
2023/11/04 01:13:30;;;;;;;;;3.33;2.00;;;;;;;;5083770;27;45752;-59
2023/11/04 01:15:55;;;;;;;;;2.00;2.00;;;;;;;;5086073;27;45681;-59
2023/11/04 01:18:20;;;;;;;;;2.67;2.67;;;;;;;;5082787;27;45444;-59
2023/11/04 01:20:46;;;;;;;;;1.33;1.33;;;;;;;;5077729;28;45603;-58
2023/11/04 01:23:11;;;;;;;;;4.33;2.67;;;;;;;;5080145;27;45797;-58
2023/11/04 01:25:36;;;;;;;;;1.00;1.00;;;;;;;;5080825;28;45487;-59
2023/11/04 01:28:01;;;;;;;;;2.00;2.00;;;;;;;;5080446;27;45676;-59
2023/11/04 01:30:27;;;;;;;;;4.00;2.00;;;;;;;;5079659;27;45673;-59
2023/11/04 01:32:52;;;;;;;;;2.33;2.00;;;;;;;;5080019;27;45750;-59
2023/11/04 01:35:17;;;;;;;;;4.33;2.33;;;;;;;;5079803;27;45706;-59
2023/11/04 01:37:42;;;;;;;;;2.00;1.00;;;;;;;;5079262;27;45515;-59
2023/11/04 01:40:10;;;;;;;;;4.00;2.00;;;;;;;;5079387;27;45452;-58
2023/11/04 01:42:35;;;;;;;;;2.67;2.00;;;;;;;;5080101;27;45152;-59
2023/11/04 01:45:01;;;;;;;;;2.00;2.00;;;;;;;;5075559;28;45200;-59
2023/11/04 01:47:26;;;;;;;;;1.00;1.00;;;;;;;;5066523;27;45464;-59
2023/11/04 01:49:51;;;;;;;;;2.00;2.00;;;;;;;;5078787;27;45437;-59
2023/11/04 01:52:18;;;;;;;;;1.50;1.50;;;;;;;;5075959;27;45421;-59
2023/11/04 01:54:43;;;;;;;;;1.00;1.00;;;;;;;;5076027;27;45466;-60
2023/11/04 01:57:08;;;;;;;;;2.00;1.00;;;;;;;;5079723;27;45283;-60
2023/11/04 01:59:34;;;;;;;;;2.33;2.00;;;;;;;;5068758;27;45420;-60
2023/11/04 02:01:59;;;;;;;;;0.67;0.67;;;;;;;;5079615;27;45624;-60
2023/11/04 02:04:25;;;;;;;;;2.00;1.00;;;;;;;;5067734;27;45329;-60
2023/11/04 02:06:50;;;;;;;;;2.00;2.00;;;;;;;;5080293;27;46194;-60
2023/11/04 02:09:15;;;;;;;;;3.67;2.00;;;;;;;;5081930;27;45455;-60
2023/11/04 02:11:40;;;;;;;;;5.00;2.33;;;;;;;;5078288;27;45492;-60
2023/11/04 02:14:08;;;;;;;;;4.00;1.00;;;;;;;;5072869;28;45709;-59
2023/11/04 02:16:34;;;;;;;;;1.00;1.00;;;;;;;;5078882;27;47219;-59
2023/11/04 02:19:01;;;;;;;;;1.00;1.00;;;;;;;;5070234;28;45381;-60
2023/11/04 02:21:26;;;;;;;;;1.00;1.00;;;;;;;;5073733;27;45406;-59
2023/11/04 02:23:52;;;;;;;;;5.00;2.00;;;;;;;;5069169;27;45575;-60
2023/11/04 02:26:17;;;;;;;;;3.00;2.00;;;;;;;;5071713;27;45585;-60
2023/11/04 02:28:42;;;;;;;;;2.00;2.00;;;;;;;;5073128;27;45358;-60
2023/11/04 02:31:07;;;;;;;;;3.33;2.00;;;;;;;;5072956;27;45650;-59
2023/11/04 02:33:33;;;;;;;;;3.33;2.00;;;;;;;;5073423;27;45270;-60
2023/11/04 02:35:58;;;;;;;;;2.00;2.00;;;;;;;;5066037;27;45608;-60
2023/11/04 02:38:23;;;;;;;;;4.00;2.67;;;;;;;;5080181;27;45394;-59
2023/11/04 02:40:48;;;;;;;;;2.33;1.00;;;;;;;;5079353;27;45333;-60
2023/11/04 02:43:13;;;;;;;;;3.00;3.00;;;;;;;;5070577;27;45506;-61
2023/11/04 02:45:39;;;;;;;;;2.00;2.00;;;;;;;;5072819;27;46763;-59
2023/11/04 02:48:04;;;;;;;;;2.00;2.00;;;;;;;;5074219;27;45457;-60
2023/11/04 02:50:30;;;;;;;;;2.00;1.00;;;;;;;;5071332;27;45348;-60
2023/11/04 02:52:55;;;;;;;;;3.00;1.00;;;;;;;;5072552;27;45725;-59
2023/11/04 02:55:20;;;;;;;;;2.67;1.00;;;;;;;;5074395;27;46709;-60
2023/11/04 02:57:46;;;;;;;;;3.67;2.00;;;;;;;;5079292;27;46314;-60
2023/11/04 03:00:13;;;;;;;;;2.33;2.00;;;;;;;;5072651;27;45485;-59
2023/11/04 03:02:38;;;;;;;;;1.00;1.00;;;;;;;;5070922;27;45577;-59
2023/11/04 03:05:04;;;;;;;;;2.00;2.00;;;;;;;;5074853;27;46103;-61
2023/11/04 03:07:29;;;;;;;;;3.00;3.00;;;;;;;;5077396;27;45353;-59
2023/11/04 03:09:54;;;;;;;;;3.67;2.33;;;;;;;;5069313;27;45425;-60
2023/11/04 03:12:20;;;;;;;;;3.00;1.00;;;;;;;;5074393;27;45661;-60
2023/11/04 03:14:48;;;;;;;;;5.00;1.67;;;;;;;;5075061;27;46422;-60
2023/11/04 03:17:13;;;;;;;;;2.33;1.33;;;;;;;;5069922;27;45780;-60
2023/11/04 03:19:38;;;;;;;;;2.50;1.50;;;;;;;;5075640;27;45249;-60
2023/11/04 03:22:04;;;;;;;;;2.00;2.00;;;;;;;;5076645;27;45633;-60
2023/11/04 03:24:29;;;;;;;;;1.33;1.33;;;;;;;;5072555;27;45533;-60
2023/11/04 03:26:55;;;;;;;;;1.00;1.00;;;;;;;;5071967;27;45409;-60
2023/11/04 03:29:20;;;;;;;;;2.33;1.67;;;;;;;;5070427;27;45353;-60
2023/11/04 03:31:45;;;;;;;;;3.67;2.00;;;;;;;;5072291;28;45311;-60
2023/11/04 03:34:10;;;;;;;;;1.00;1.00;;;;;;;;5072967;27;46479;-60
2023/11/04 03:36:35;;;;;;;;;2.00;1.00;;;;;;;;5078686;27;45353;-60
2023/11/04 03:39:01;;;;;;;;;1.00;1.00;;;;;;;;5072197;27;45442;-60
2023/11/04 03:41:26;;;;;;;;;1.67;1.67;;;;;;;;5079923;27;45684;-60
2023/11/04 03:43:51;;;;;;;;;2.33;2.00;;;;;;;;5074521;27;46722;-60
2023/11/04 03:46:16;;;;;;;;;4.00;2.00;;;;;;;;5077321;27;45473;-60
2023/11/04 03:48:42;;;;;;;;;2.33;1.00;;;;;;;;5076161;27;45457;-60
2023/11/04 03:51:08;;;;;;;;;0.67;0.33;;;;;;;;5081659;27;45479;-60
2023/11/04 03:53:33;;;;;;;;;2.00;2.00;;;;;;;;5075963;27;46254;-60
2023/11/04 03:55:58;;;;;;;;;2.00;2.00;;;;;;;;5082869;27;45369;-60
2023/11/04 03:58:24;;;;;;;;;1.00;1.00;;;;;;;;5076379;27;45527;-59
2023/11/04 04:00:49;;;;;;;;;3.00;2.00;;;;;;;;5080647;27;45471;-60
2023/11/04 04:03:14;;;;;;;;;2.00;1.00;;;;;;;;5074350;27;46356;-59
2023/11/04 04:05:39;;;;;;;;;3.00;1.00;;;;;;;;5079773;27;45492;-59
2023/11/04 04:08:04;;;;;;;;;2.00;1.67;;;;;;;;5080204;27;45436;-60
2023/11/04 04:10:30;;;;;;;;;2.00;0.00;;;;;;;;5083429;27;45586;-60
2023/11/04 04:12:55;;;;;;;;;2.00;2.00;;;;;;;;5076565;27;45737;-60
2023/11/04 04:15:20;;;;;;;;;1.67;1.67;;;;;;;;5079844;27;45510;-60
2023/11/04 04:17:45;;;;;;;;;1.00;1.00;;;;;;;;5077193;27;45472;-59
2023/11/04 04:20:11;;;;;;;;;3.33;1.00;;;;;;;;5074695;27;45467;-60
2023/11/04 04:22:37;;;;;;;;;2.00;2.00;;;;;;;;5071851;27;46387;-60
2023/11/04 04:25:03;;;;;;;;;1.00;1.00;;;;;;;;5075236;27;45449;-60
2023/11/04 04:27:28;;;;;;;;;1.00;1.00;;;;;;;;5074930;27;45383;-59
2023/11/04 04:29:53;;;;;;;;;3.33;2.00;;;;;;;;5079441;27;45511;-60
2023/11/04 04:32:18;;;;;;;;;2.00;2.00;;;;;;;;5077544;27;45468;-60
2023/11/04 04:34:45;;;;;;;;;1.00;1.00;;;;;;;;5077579;27;45580;-60
2023/11/04 04:37:10;;;;;;;;;3.00;1.00;;;;;;;;5060535;27;45386;-60
2023/11/04 04:39:36;;;;;;;;;3.00;2.00;;;;;;;;5087521;27;45414;-59
2023/11/04 04:42:02;;;;;;;;;3.00;3.00;;;;;;;;5077448;27;47308;-60
2023/11/04 04:44:27;;;;;;;;;3.00;1.33;;;;;;;;5075274;27;45422;-60
2023/11/04 04:46:52;;;;;;;;;2.00;2.00;;;;;;;;5067711;27;45473;-59
2023/11/04 04:49:17;;;;;;;;;2.50;2.00;;;;;;;;5070919;27;45425;-59
2023/11/04 04:51:43;;;;;;;;;2.00;2.00;;;;;;;;5071697;27;46123;-59
2023/11/04 04:54:08;;;;;;;;;1.33;1.33;;;;;;;;5078462;27;45487;-60
2023/11/04 04:56:33;;;;;;;;;3.00;2.67;;;;;;;;5076729;27;45389;-60
2023/11/04 04:58:58;;;;;;;;;4.00;2.33;;;;;;;;5076216;27;45498;-59
2023/11/04 05:01:24;;;;;;;;;1.67;1.00;;;;;;;;5067639;27;45371;-59
2023/11/04 05:03:49;;;;;;;;;2.00;1.00;;;;;;;;5078077;27;45587;-59
2023/11/04 05:06:15;;;;;;;;;1.33;1.00;;;;;;;;5068713;28;45488;-59
2023/11/04 05:08:40;;;;;;;;;2.67;1.67;;;;;;;;5084504;27;45348;-59
2023/11/04 05:11:06;;;;;;;;;1.00;1.00;;;;;;;;5070373;28;47269;-59
2023/11/04 05:13:31;;;;;;;;;0.00;0.00;;;;;;;;5070032;27;45528;-59
2023/11/04 05:15:56;;;;;;;;;2.33;1.67;;;;;;;;5071254;28;45385;-59
2023/11/04 05:18:22;;;;;;;;;1.00;1.00;;;;;;;;5070607;27;45331;-59
2023/11/04 05:20:47;;;;;;;;;1.00;1.00;;;;;;;;5069528;27;45408;-59
2023/11/04 05:23:12;;;;;;;;;1.67;1.00;;;;;;;;5067191;27;45365;-59
2023/11/04 05:25:38;;;;;;;;;1.67;1.00;;;;;;;;5081009;27;45420;-59
2023/11/04 05:28:03;;;;;;;;;2.67;1.67;;;;;;;;5079490;27;45412;-59
2023/11/04 05:30:28;;;;;;;;;1.00;1.00;;;;;;;;5080146;27;46290;-59
2023/11/04 05:32:53;;;;;;;;;4.00;1.33;;;;;;;;5078945;27;45318;-59
2023/11/04 05:35:20;;;;;;;;;2.00;0.33;;;;;;;;5074581;27;45540;-59
2023/11/04 05:37:45;;;;;;;;;1.67;0.00;;;;;;;;5078239;27;45572;-59
2023/11/04 05:40:10;;;;;;;;;0.33;0.00;;;;;;;;5080276;27;45433;-59
2023/11/04 05:42:35;;;;;;;;;4.00;0.00;;;;;;;;5070531;27;46079;-60
2023/11/04 05:45:01;;;;;;;;;2.00;1.00;;;;;;;;5078895;27;45476;-60
2023/11/04 05:47:26;;;;;;;;;0.00;0.00;;;;;;;;5080228;27;45462;-59
2023/11/04 05:49:52;;;;;;;;;2.00;0.00;;;;;;;;5076742;27;46388;-60
2023/11/04 05:52:17;;;;;;;;;3.00;0.00;;;;;;;;5079238;27;45715;-59
2023/11/04 05:54:42;;;;;;;;;0.67;0.00;;;;;;;;5079656;27;45224;-60
2023/11/04 05:57:07;;;;;;;;;0.67;0.33;;;;;;;;5081542;27;45443;-59
2023/11/04 05:59:32;;;;;;;;;0.00;0.00;;;;;;;;5080540;27;46742;-59
2023/11/04 06:01:58;;;;;;;;;4.67;1.00;;;;;;;;5079808;27;45634;-60
2023/11/04 06:04:23;;;;;;;;;0.67;0.67;;;;;;;;5081303;27;45436;-60
2023/11/04 06:06:48;;;;;;;;;2.00;0.00;;;;;;;;5081819;27;45574;-61
2023/11/04 06:09:13;;;;;;;;;3.00;1.00;;;;;;;;5082217;27;45404;-60
2023/11/04 06:11:38;;;;;;;;;1.00;0.00;;;;;;;;5082072;27;45577;-60
2023/11/04 06:14:04;;;;;;;;;1.33;1.00;;;;;;;;5075259;27;45505;-60
2023/11/04 06:16:32;;;;;;;;;1.00;1.00;;;;;;;;5081167;27;45317;-60
2023/11/04 06:18:57;;;;;;;;;0.00;0.00;;;;;;;;5080364;27;45345;-60
2023/11/04 06:21:23;;;;;;;;;0.00;0.00;;;;;;;;5077967;27;45344;-60
2023/11/04 06:23:48;;;;;;;;;0.00;0.00;;;;;;;;5080997;27;45215;-59
2023/11/04 06:26:19;;;;;;;;;0.00;0.00;;;;;;;;5080750;27;45723;-60
2023/11/04 06:28:44;;;;;;;;;1.00;1.00;;;;;;;;5078824;27;46463;-60
2023/11/04 06:31:10;;;;;;;;;2.00;1.00;;;;;;;;5075903;27;45542;-60
2023/11/04 06:33:35;;;;;;;;;0.00;0.00;;;;;;;;5077153;27;45365;-60
2023/11/04 06:36:00;;;;;;;;;3.33;1.00;;;;;;;;5068404;27;45436;-60
2023/11/04 06:38:26;;;;;;;;;0.33;0.00;;;;;;;;5075315;27;46387;-60
2023/11/04 06:40:51;;;;;;;;;0.00;0.00;;;;;;;;5079470;27;45361;-60
2023/11/04 06:43:16;;;;;;;;;0.00;0.00;;;;;;;;5076472;28;45235;-59
2023/11/04 06:45:41;;;;;;;;;1.00;1.00;;;;;;;;5077532;27;45553;-59
2023/11/04 06:48:06;;;;;;;;;2.00;1.00;;;;;;;;5076362;27;49301;-59
2023/11/04 06:50:32;;;;;;;;;0.00;0.00;;;;;;;;5074567;27;45468;-60
2023/11/04 06:52:58;;;;;;;;;3.00;0.67;;;;;;;;5078091;27;45476;-60
2023/11/04 06:55:23;;;;;;;;;0.00;0.00;;;;;;;;5078574;27;45216;-59
2023/11/04 06:57:48;;;;;;;;;2.00;0.00;;;;;;;;5077422;27;47079;-60
2023/11/04 07:00:14;;;;;;;;;1.00;0.00;;;;;;;;5077753;27;45315;-60
2023/11/04 07:02:41;;;;;;;;;1.00;1.00;;;;;;;;5079340;27;45749;-59
2023/11/04 07:05:09;;;;;;;;;0.67;0.00;;;;;;;;5078565;27;45438;-60
2023/11/04 07:07:35;;;;;;;;;0.00;0.00;;;;;;;;5071524;28;46210;-61
2023/11/04 07:10:00;;;;;;;;;0.00;0.00;;;;;;;;5079015;27;45581;-60
2023/11/04 07:12:25;;;;;;;;;3.00;0.00;;;;;;;;5074652;27;45571;-60
2023/11/04 07:14:50;;;;;;;;;0.00;0.00;;;;;;;;5071174;27;45355;-60
2023/11/04 07:17:16;;;;;;;;;0.00;0.00;;;;;;;;5076420;27;46581;-60
2023/11/04 07:19:41;;;;;;;;;0.00;0.00;;;;;;;;5067981;27;45764;-60
2023/11/04 07:22:06;;;;;;;;;2.00;0.00;;;;;;;;5068735;27;45519;-60
2023/11/04 07:24:34;;;;;;;;;0.00;0.00;;;;;;;;5067346;27;45637;-59
2023/11/04 07:26:59;;;;;;;;;0.00;0.00;;;;;;;;5072742;27;46178;-60
2023/11/04 07:29:25;;;;;;;;;0.00;0.00;;;;;;;;5076889;27;45272;-60
2023/11/04 07:31:50;;;;;;;;;2.00;1.00;;;;;;;;5079998;27;45533;-60
2023/11/04 07:34:15;;;;;;;;;3.00;0.00;;;;;;;;5063232;27;45510;-59
2023/11/04 07:36:41;;;;;;;;;0.00;0.00;;;;;;;;5079532;27;46247;-59
2023/11/04 07:39:07;;;;;;;;;2.33;0.00;;;;;;;;5077343;27;45448;-60
2023/11/04 07:41:32;;;;;;;;;2.67;1.00;;;;;;;;5070922;27;45617;-59
2023/11/04 07:43:58;;;;;;;;;0.00;0.00;;;;;;;;5077587;27;45284;-60
2023/11/04 07:46:23;;;;;;;;;0.67;0.67;;;;;;;;5070519;28;46025;-60
2023/11/04 07:48:48;;;;;;;;;0.00;0.00;;;;;;;;5065458;28;45474;-60
2023/11/04 07:51:13;;;;;;;;;0.67;0.00;;;;;;;;5077017;28;45286;-60
2023/11/04 07:53:40;;;;;;;;;2.00;0.00;;;;;;;;5076549;28;45373;-60
2023/11/04 07:56:06;;;;;;;;;0.00;0.00;;;;;;;;5070868;28;45699;-60
2023/11/04 07:58:31;;;;;;;;;0.00;0.00;;;;;;;;5075530;28;45358;-60
2023/11/04 08:00:57;;;;;;;;;2.00;0.00;;;;;;;;5070387;28;45487;-61
2023/11/04 08:03:23;;;;;;;;;4.00;0.00;;;;;;;;5071221;28;45437;-61
2023/11/04 08:05:48;;;;;;;;;0.00;0.00;;;;;;;;5077045;27;46275;-60
2023/11/04 08:08:13;;;;;;;;;0.00;0.00;;;;;;;;5071782;27;45446;-60
2023/11/04 08:10:39;;;;;;;;;0.00;0.00;;;;;;;;5074410;28;45704;-60
2023/11/04 08:13:04;;;;;;;;;0.00;0.00;;;;;;;;5073883;28;45258;-60
2023/11/04 08:15:30;;;;;;;;;0.00;0.00;;;;;;;;5066866;28;46471;-60
2023/11/04 08:17:59;;;;;;;;;0.00;0.00;;;;;;;;5071463;28;45465;-60
2023/11/04 08:20:24;;;;;;;;;0.00;0.00;;;;;;;;5071650;28;45682;-60
2023/11/04 08:22:49;;;;;;;;;0.00;0.00;;;;;;;;5065680;28;45604;-60
2023/11/04 08:25:14;;;;;;;;;0.00;0.00;;;;;;;;5073839;28;45415;-60
2023/11/04 08:27:40;;;;;;;;;0.00;0.00;;;;;;;;5061455;28;45375;-60
2023/11/04 08:30:07;;;;;;;;;0.00;0.00;;;;;;;;5077174;28;45511;-60
2023/11/04 08:32:32;;;;;;;;;0.33;0.33;;;;;;;;5068326;27;45535;-60
2023/11/04 08:34:58;;;;;;;;;1.00;0.00;;;;;;;;5077557;28;46391;-59
2023/11/04 08:37:24;;;;;;;;;0.00;0.00;;;;;;;;5080044;28;45310;-61
2023/11/04 08:39:50;;;;;;;;;0.00;0.00;;;;;;;;5075036;28;45286;-62
2023/11/04 08:42:15;;;;;;;;;0.67;0.00;;;;;;;;5072350;28;45545;-60
2023/11/04 08:44:40;;;;;;;;;0.00;0.00;;;;;;;;5067297;28;45336;-58
2023/11/04 08:47:06;;;;;;;;;0.00;0.00;;;;;;;;5081061;28;45491;-58
2023/11/04 08:49:32;;;;;;;;;0.00;0.00;;;;;;;;5074850;28;45495;-59
2023/11/04 08:51:58;;;;;;;;;0.00;0.00;;;;;;;;5080376;27;45278;-58
2023/11/04 08:54:24;;;;;;;;;0.00;0.00;;;;;;;;5076370;28;45468;-58
2023/11/04 08:56:49;;;;;;;;;0.00;0.00;;;;;;;;5077005;27;45488;-58
2023/11/04 08:59:14;;;;;;;;;0.00;0.00;;;;;;;;5076751;28;45467;-57
2023/11/04 09:01:40;;;;;;;;;0.00;0.00;;;;;;;;5078649;27;46694;-57
2023/11/04 09:04:06;;;;;;;;;0.67;0.00;;;;;;;;5079380;28;46249;-58
2023/11/04 09:06:31;;;;;;;;;0.00;0.00;;;;;;;;5075805;27;45313;-58
2023/11/04 09:08:56;;;;;;;;;0.00;0.00;;;;;;;;5080720;27;45309;-58
2023/11/04 09:11:22;;;;;;;;;0.00;0.00;;;;;;;;5078609;28;45204;-57
2023/11/04 09:13:47;;;;;;;;;0.00;0.00;;;;;;;;5074491;28;45451;-58
2023/11/04 09:16:14;;;;;;;;;0.00;0.00;;;;;;;;5074162;28;45751;-57
2023/11/04 09:18:39;;;;;;;;;0.00;0.00;;;;;;;;5076104;28;45476;-58
2023/11/04 09:21:05;;;;;;;;;1.00;0.00;;;;;;;;5072987;27;45774;-57
2023/11/04 09:23:30;;;;;;;;;0.00;0.00;;;;;;;;5067970;28;46180;-57
2023/11/04 09:25:55;;;;;;;;;0.00;0.00;;;;;;;;5073468;27;45294;-57
2023/11/04 09:28:20;;;;;;;;;0.00;0.00;;;;;;;;5080117;28;45425;-58
2023/11/04 09:30:46;;;;;;;;;0.00;0.00;;;;;;;;5074455;27;45601;-56
2023/11/04 09:33:11;;;;;;;;;0.00;0.00;;;;;;;;5079250;28;46996;-58
2023/11/04 09:35:37;;;;;;;;;0.00;0.00;;;;;;;;5079436;28;45456;-58
2023/11/04 09:38:04;;;;;;;;;0.00;0.00;;;;;;;;5084071;27;45292;-58
2023/11/04 09:40:29;;;;;;;;;0.00;0.00;;;;;;;;5076730;27;45398;-58
2023/11/04 09:42:54;;;;;;;;;2.00;0.00;;;;;;;;5074079;28;45421;-57
2023/11/04 09:45:22;;;;;;;;;0.00;0.00;;;;;;;;5079877;28;45812;-58
2023/11/04 09:47:47;;;;;;;;;0.00;0.00;;;;;;;;5071544;28;45458;-57
2023/11/04 09:50:12;;;;;;;;;1.00;0.00;;;;;;;;5075245;27;45445;-57
2023/11/04 09:52:38;;;;;;;;;0.00;0.00;;;;;;;;5070335;27;45452;-57
2023/11/04 09:55:05;;;;;;;;;0.33;0.00;;;;;;;;5066143;28;45287;-57
2023/11/04 09:57:31;;;;;;;;;0.00;0.00;;;;;;;;5074665;28;45443;-57
2023/11/04 09:59:57;;;;;;;;;0.00;0.00;;;;;;;;5078220;28;45489;-57
2023/11/04 10:02:22;;;;;;;;;2.00;0.00;;;;;;;;5073151;27;45548;-56
2023/11/04 10:04:48;;;;;;;;;0.00;0.00;;;;;;;;5074419;27;45677;-57
2023/11/04 10:07:13;;;;;;;;;0.00;0.00;;;;;;;;5077595;27;45420;-58
2023/11/04 10:09:38;;;;;;;;;0.00;0.00;;;;;;;;5073957;27;45394;-57
2023/11/04 10:12:03;;;;;;;;;0.00;0.00;;;;;;;;5075385;27;48151;-57
2023/11/04 10:14:29;;;;;;;;;2.00;0.00;;;;;;;;5075237;27;45322;-57
2023/11/04 10:16:54;;;;;;;;;0.00;0.00;;;;;;;;5069573;27;45486;-58
2023/11/04 10:19:19;;;;;;;;;0.67;0.00;;;;;;;;5072672;27;45696;-56
2023/11/04 10:21:44;;;;;;;;;0.00;0.00;;;;;;;;5076405;27;46476;-55
2023/11/04 10:24:10;;;;;;;;;2.00;0.00;;;;;;;;5074957;27;45487;-56
2023/11/04 10:26:36;;;;;;;;;0.00;0.00;;;;;;;;5078667;27;45389;-56
2023/11/04 10:29:01;;;;;;;;;0.00;0.00;;;;;;;;5078148;27;45514;-57
2023/11/04 10:31:27;;;;;;;;;0.67;0.00;;;;;;;;5073543;27;45419;-57
2023/11/04 10:33:55;;;;;;;;;0.00;0.00;;;;;;;;5075779;27;45551;-55
2023/11/04 10:36:21;;;;;;;;;2.00;0.00;;;;;;;;5077872;27;45370;-54
2023/11/04 10:38:56;;;;;;;;;0.00;0.00;;;;;;;;5078127;27;45491;-54
2023/11/04 10:41:25;;;;;;;;;0.00;0.00;;;;;;;;5078916;27;45654;-55
2023/11/04 10:44:05;;;;;;;;;1.00;0.00;;;;;;;;5078162;27;45469;-57
2023/11/04 10:46:36;;;;;;;;;0.00;0.00;;;;;;;;5074376;27;46463;-56
2023/11/04 10:49:11;;;;;;;;;1.33;0.00;;;;;;;;5075278;27;45462;-56
2023/11/04 10:51:41;;;;;;;;;0.00;0.00;;;;;;;;5073601;27;45541;-56
2023/11/04 10:54:16;;;;;;;;;0.00;0.00;;;;;;;;5094892;27;45538;-55
2023/11/04 10:56:48;;;;;;;;;0.00;0.00;;;;;;;;5078652;27;45372;-55
2023/11/04 10:59:24;;;;;;;;;2.00;0.33;;;;;;;;5074838;27;45434;-58
2023/11/04 11:01:50;;;;;;;;;1.00;0.00;;;;;;;;5075994;27;45641;-56
2023/11/04 11:04:16;;;;;;;;;0.33;0.33;;;;;;;;5076972;27;45565;-58
2023/11/04 11:06:42;;;;;;;;;0.00;0.00;;;;;;;;5078326;27;45483;-55
2023/11/04 11:09:09;;;;;;;;;1.33;1.00;;;;;;;;5075550;27;45520;-56
2023/11/04 11:11:42;;;;;;;;;2.00;0.67;;;;;;;;5077264;28;46168;-55
2023/11/04 11:14:07;;;;;;;;;0.00;0.00;;;;;;;;5073327;28;45696;-56
2023/11/04 11:16:33;;;;;;;;;0.00;0.00;;;;;;;;5071701;28;45425;-55
2023/11/04 11:19:10;;;;;;;;;0.00;0.00;;;;;;;;5071831;28;45389;-57
2023/11/04 11:21:49;;;;;;;;;2.00;0.33;;;;;;;;5071035;27;46277;-56
2023/11/04 11:24:14;;;;;;;;;0.00;0.00;;;;;;;;5071452;27;45400;-56
2023/11/04 11:26:46;;;;;;;;;3.33;2.00;;;;;;;;5075832;27;45562;-55
2023/11/04 11:29:25;;;;;;;;;1.00;1.00;;;;;;;;5074020;27;45528;-56
2023/11/04 11:31:51;;;;;;;;;2.33;1.00;;;;;;;;5075979;28;45433;-55
2023/11/04 11:34:18;;;;;;;;;0.33;0.33;;;;;;;;5077435;27;45328;-55
2023/11/04 11:36:44;;;;;;;;;2.00;2.00;;;;;;;;5077628;28;45432;-55
2023/11/04 11:39:10;;;;;;;;;4.00;1.00;;;;;;;;5077053;28;45655;-55
2023/11/04 11:41:39;;;;;;;;;3.33;2.33;;;;;;;;5077435;28;46272;-55
2023/11/04 11:44:06;;;;;;;;;3.00;2.33;;;;;;;;5072134;28;45508;-55
2023/11/04 11:46:32;;;;;;;;;3.00;2.00;;;;;;;;5070335;28;45488;-55
2023/11/04 11:48:57;;;;;;;;;5.00;1.67;;;;;;;;5072709;27;45529;-56
2023/11/04 11:51:22;;;;;;;;;2.67;2.67;;;;;;;;5075318;27;46374;-55
2023/11/04 11:53:47;;;;;;;;;3.00;1.33;;;;;;;;5064371;28;45365;-56
2023/11/04 11:56:13;;;;;;;;;4.00;1.00;;;;;;;;5069964;28;45310;-57
2023/11/04 11:58:38;;;;;;;;;8.00;4.00;;;;;;;;5077040;27;45540;-57
2023/11/04 12:01:05;;;;;;;;;3.33;3.00;;;;;;;;5077002;28;45665;-56
2023/11/04 12:03:31;;;;;;;;;4.33;2.00;;;;;;;;5077826;27;45326;-57
2023/11/04 12:05:56;;;;;;;;;2.00;2.00;;;;;;;;5072422;27;45483;-57
2023/11/04 12:08:21;;;;;;;;;6.33;2.67;;;;;;;;5077291;27;45272;-56
2023/11/04 12:10:46;;;;;;;;;7.33;2.00;;;;;;;;5073286;28;45389;-56
2023/11/04 12:13:13;;;;;;;;;3.00;2.00;;;;;;;;5071960;28;45430;-62
2023/11/04 12:15:40;;;;;;;;;6.33;3.67;;;;;;;;5061279;28;45846;-63
2023/11/04 12:18:06;;;;;;;;;3.33;1.00;;;;;;;;5067258;28;45686;-62
2023/11/04 12:20:32;;;;;;;;;8.00;3.67;;;;;;;;5069824;28;45989;-59
2023/11/04 12:22:58;;;;;;;;;7.67;3.00;;;;;;;;5076053;27;45438;-60
2023/11/04 12:25:23;;;;;;;;;2.00;2.00;;;;;;;;5071278;27;45385;-61
2023/11/04 12:27:48;;;;;;;;;6.00;1.00;;;;;;;;5072311;28;45647;-62
2023/11/04 12:30:17;;;;;;;;;4.00;3.00;;;;;;;;5074247;28;45316;-60
2023/11/04 12:32:42;;;;;;;;;6.00;3.33;;;;;;;;5070202;27;45492;-60
2023/11/04 12:35:11;;;;;;;;;4.00;1.33;;;;;;;;5074702;27;45513;-62
2023/11/04 12:37:36;;;;;;;;;2.33;2.33;;;;;;;;5075482;27;45247;-59
2023/11/04 12:40:01;;;;;;;;;5.67;4.00;;;;;;;;5072339;27;46081;-59
2023/11/04 12:42:27;;;;;;;;;5.00;2.67;;;;;;;;5074761;27;45361;-59
2023/11/04 12:44:52;;;;;;;;;5.00;1.00;;;;;;;;5076031;27;45431;-59
2023/11/04 12:47:27;;;;;;;;;0.67;0.33;;;;;;;;5076224;27;45450;-59
2023/11/04 12:49:53;;;;;;;;;2.00;1.00;;;;;;;;5073023;28;45713;-60
2023/11/04 12:52:19;;;;;;;;;5.00;4.00;;;;;;;;5072442;28;45454;-59
2023/11/04 12:54:48;;;;;;;;;5.33;0.67;;;;;;;;5074454;28;45522;-61
2023/11/04 12:57:17;;;;;;;;;2.67;2.00;;;;;;;;5072573;28;45323;-60
2023/11/04 12:59:42;;;;;;;;;0.00;0.00;;;;;;;;5073215;28;47046;-60
2023/11/04 13:02:07;;;;;;;;;3.00;1.33;;;;;;;;5075420;28;45541;-60
2023/11/04 13:04:33;;;;;;;;;3.00;0.00;;;;;;;;5076075;28;45442;-61
2023/11/04 13:06:58;;;;;;;;;0.00;0.00;;;;;;;;5075055;27;45362;-59
2023/11/04 13:09:29;;;;;;;;;0.67;0.67;;;;;;;;5074293;28;46551;-59
2023/11/04 13:11:54;;;;;;;;;1.33;0.00;;;;;;;;5078957;27;45382;-61
2023/11/04 13:14:19;;;;;;;;;2.67;2.67;;;;;;;;5071915;27;45438;-59
2023/11/04 13:16:44;;;;;;;;;3.33;2.00;;;;;;;;5074469;27;46319;-60
2023/11/04 13:19:09;;;;;;;;;3.33;0.33;;;;;;;;5065238;28;46693;-60
2023/11/04 13:21:35;;;;;;;;;0.67;0.67;;;;;;;;5076595;28;45390;-59
2023/11/04 13:24:01;;;;;;;;;3.00;2.00;;;;;;;;5074535;27;45508;-59
2023/11/04 13:26:26;;;;;;;;;4.33;2.33;;;;;;;;5073727;28;45322;-61
2023/11/04 13:28:51;;;;;;;;;0.67;0.67;;;;;;;;5076212;28;46609;-60
2023/11/04 13:31:17;;;;;;;;;2.67;1.67;;;;;;;;5077211;28;45278;-61
2023/11/04 13:33:42;;;;;;;;;1.67;0.67;;;;;;;;5078374;27;45344;-61
2023/11/04 13:36:08;;;;;;;;;9.33;9.33;;;;;;;;5076008;28;45673;-61
2023/11/04 13:38:34;;;;;;;;;3.67;1.67;;;;;;;;5076474;27;45658;-61
2023/11/04 13:40:59;;;;;;;;;2.67;0.67;;;;;;;;5078256;28;45263;-59
2023/11/04 13:43:24;;;;;;;;;3.33;1.67;;;;;;;;5077094;27;46638;-61
2023/11/04 13:45:49;;;;;;;;;6.33;1.33;;;;;;;;5078908;28;45458;-62
2023/11/04 13:48:16;;;;;;;;;3.00;2.00;;;;;;;;5076144;27;45471;-59
2023/11/04 13:50:41;;;;;;;;;2.00;1.00;;;;;;;;5076438;27;45734;-61
2023/11/04 13:53:06;;;;;;;;;3.67;2.00;;;;;;;;5075632;27;45539;-61
2023/11/04 13:55:31;;;;;;;;;2.67;2.00;;;;;;;;5077945;28;45833;-61
2023/11/04 13:57:56;;;;;;;;;2.50;1.50;;;;;;;;5076567;27;46086;-61
2023/11/04 14:00:22;;;;;;;;;1.33;1.00;;;;;;;;5071408;28;45294;-60
2023/11/04 14:02:47;;;;;;;;;3.00;1.33;;;;;;;;5077943;28;45341;-60
2023/11/04 14:05:12;;;;;;;;;1.67;0.67;;;;;;;;5078706;28;45568;-60
2023/11/04 14:07:37;;;;;;;;;2.67;0.67;;;;;;;;5075730;28;45568;-60
2023/11/04 14:10:04;;;;;;;;;2.33;1.00;;;;;;;;5069637;27;45455;-61
2023/11/04 14:12:29;;;;;;;;;3.33;0.67;;;;;;;;5072242;28;45372;-60
2023/11/04 14:14:54;;;;;;;;;0.67;0.67;;;;;;;;5072853;27;45264;-61
2023/11/04 14:17:20;;;;;;;;;0.33;0.33;;;;;;;;5075163;28;47173;-60
2023/11/04 14:19:45;;;;;;;;;3.00;1.33;;;;;;;;5074864;27;45370;-53
2023/11/04 14:22:10;;;;;;;;;3.00;1.67;;;;;;;;5073867;27;45458;-54
2023/11/04 14:24:36;;;;;;;;;1.67;0.00;;;;;;;;5077772;27;45417;-54
2023/11/04 14:27:01;;;;;;;;;1.00;1.00;;;;;;;;5076228;28;46592;-53
2023/11/04 14:29:26;;;;;;;;;1.00;1.00;;;;;;;;5078861;27;45547;-52
2023/11/04 14:31:51;;;;;;;;;3.00;0.67;;;;;;;;5074994;27;45446;-54
2023/11/04 14:34:16;;;;;;;;;1.00;1.00;;;;;;;;5075793;27;45554;-56